createdAt,value
2019-03-12T00:00:04.033Z,1009.12
2019-03-12T00:05:08.757Z,1009.15
2019-03-12T00:10:20.248Z,1009.15
2019-03-12T00:15:07.352Z,1009.2
2019-03-12T00:20:06.865Z,1009.25
2019-03-12T00:25:09.419Z,1009.28
2019-03-12T00:30:04.025Z,1009.3
2019-03-12T00:35:06.614Z,1009.2
2019-03-12T00:40:08.981Z,1009.14
2019-03-12T00:45:04.412Z,1009.19
2019-03-12T00:50:06.613Z,1009.14
2019-03-12T00:55:09.626Z,1009.06
2019-03-12T01:00:04.208Z,1008.92
2019-03-12T01:05:06.828Z,1008.93
2019-03-12T01:10:10.547Z,1008.99
2019-03-12T01:15:05.568Z,1008.91
2019-03-12T01:20:07.063Z,1008.87
2019-03-12T01:25:09.679Z,1008.88
2019-03-12T01:30:04.230Z,1008.88
2019-03-12T01:35:07.350Z,1008.82
2019-03-12T01:40:09.143Z,1008.79
2019-03-12T01:45:05.380Z,1008.74
2019-03-12T01:50:09.289Z,1008.66
2019-03-12T01:55:08.775Z,1008.64
2019-03-12T02:00:04.861Z,1008.63
2019-03-12T02:05:06.554Z,1008.59
2019-03-12T02:10:06.403Z,1008.56
2019-03-12T02:15:06.524Z,1008.56
2019-03-12T02:20:12.711Z,1008.47
2019-03-12T02:25:07.819Z,1008.39
2019-03-12T02:30:09.847Z,1008.45
2019-03-12T02:35:06.677Z,1008.45
2019-03-12T02:40:08.798Z,1008.26
2019-03-12T02:45:03.254Z,1008.11
2019-03-12T02:50:06.921Z,1008.22
2019-03-12T02:55:10.114Z,1008.18
2019-03-12T03:00:02.701Z,1008.18
2019-03-12T03:05:07.367Z,1008.15
2019-03-12T03:10:09.390Z,1008.08
2019-03-12T03:15:03.223Z,1008.15
2019-03-12T03:20:08.141Z,1008.12
2019-03-12T03:25:07.458Z,1008.11
2019-03-12T03:30:08.568Z,1008.1
2019-03-12T03:35:11.101Z,1008
2019-03-12T03:40:09.327Z,1007.96
2019-03-12T03:45:07.684Z,1007.83
2019-03-12T03:50:15.066Z,1007.87
2019-03-12T03:55:08.508Z,1007.77
2019-03-12T04:00:07.309Z,1007.75
2019-03-12T04:05:10.923Z,1007.71
2019-03-12T04:10:05.621Z,1007.65
2019-03-12T04:15:06.689Z,1007.62
2019-03-12T04:20:07.307Z,1007.48
2019-03-12T04:25:09.848Z,1007.44
2019-03-12T04:30:04.477Z,1007.4
2019-03-12T04:35:09.431Z,1007.38
2019-03-12T04:40:07.731Z,1007.31
2019-03-12T04:45:03.796Z,1007.26
2019-03-12T04:50:07.932Z,1007.22
2019-03-12T04:55:08.149Z,1007.17
2019-03-12T05:00:03.243Z,1007.02
2019-03-12T05:05:07.502Z,1006.97
2019-03-12T05:10:03.472Z,1006.97
2019-03-12T05:15:09.575Z,1006.91
2019-03-12T05:20:07.748Z,1006.8
2019-03-12T05:25:07.569Z,1006.75
2019-03-12T05:30:03.942Z,1006.67
2019-03-12T05:35:07.144Z,1006.61
2019-03-12T05:40:07.664Z,1006.58
2019-03-12T05:45:03.220Z,1006.56
2019-03-12T05:50:07.478Z,1006.5
2019-03-12T05:55:07.336Z,1006.55
2019-03-12T06:00:02.929Z,1006.45
2019-03-12T06:05:07.485Z,1006.37
2019-03-12T06:10:04.400Z,1006.29
2019-03-12T06:15:03.798Z,1006.16
2019-03-12T06:20:07.538Z,1006.05
2019-03-12T06:25:10.005Z,1005.97
2019-03-12T06:30:02.535Z,1005.94
2019-03-12T06:35:09.582Z,1005.89
2019-03-12T06:40:07.829Z,1005.79
2019-03-12T06:45:03.318Z,1005.67
2019-03-12T06:50:06.596Z,1005.56
2019-03-12T06:55:06.056Z,1005.43
2019-03-12T07:00:02.585Z,1005.44
2019-03-12T07:05:05.664Z,1005.35
2019-03-12T07:10:06.161Z,1005.39
2019-03-12T07:15:03.827Z,1005.32
2019-03-12T07:20:05.831Z,1005.14
2019-03-12T07:25:10.202Z,1005.08
2019-03-12T07:30:03.230Z,1005.02
2019-03-12T07:35:08.896Z,1004.9
2019-03-12T07:40:08.039Z,1004.75
2019-03-12T07:45:03.226Z,1004.67
2019-03-12T07:50:09.165Z,1004.64
2019-03-12T07:55:07.607Z,1004.53
2019-03-12T08:00:04.115Z,1004.54
2019-03-12T08:05:05.604Z,1004.41
2019-03-12T08:10:06.037Z,1004.37
2019-03-12T08:15:03.284Z,1004.36
2019-03-12T08:20:05.691Z,1004.27
2019-03-12T08:25:05.916Z,1004.14
2019-03-12T08:30:03.952Z,1003.96
2019-03-12T08:35:05.694Z,1003.97
2019-03-12T08:40:05.757Z,1003.78
2019-03-12T08:45:04.293Z,1003.6
2019-03-12T08:50:05.305Z,1003.66
2019-03-12T08:55:09.380Z,1003.68
2019-03-12T09:00:03.988Z,1003.5
2019-03-12T09:05:06.641Z,1003.43
2019-03-12T09:10:10.402Z,1003.41
2019-03-12T09:15:04.047Z,1003.28
2019-03-12T09:20:10.224Z,1003.03
2019-03-12T09:25:07.981Z,1002.92
2019-03-12T09:30:04.497Z,1002.82
2019-03-12T09:35:06.791Z,1002.68
2019-03-12T09:40:07.074Z,1002.62
2019-03-12T09:45:03.230Z,1002.47
2019-03-12T09:50:05.948Z,1002.34
2019-03-12T09:55:08.030Z,1002.22
2019-03-12T10:00:17.057Z,1001.99
2019-03-12T10:05:06.229Z,1001.92
2019-03-12T10:10:07.813Z,1001.83
2019-03-12T10:15:04.348Z,1001.69
2019-03-12T10:20:06.806Z,1001.62
2019-03-12T10:25:10.965Z,1001.43
2019-03-12T10:30:06.528Z,1001.29
2019-03-12T10:35:09.536Z,1001.36
2019-03-12T10:40:07.462Z,1001.22
2019-03-12T10:45:03.584Z,1001.06
2019-03-12T10:50:08.387Z,1000.87
2019-03-12T10:55:16.582Z,1000.67
2019-03-12T11:00:03.542Z,1000.62
2019-03-12T11:05:07.649Z,1000.48
2019-03-12T11:10:07.909Z,1000.33
2019-03-12T11:15:03.882Z,1000.1
2019-03-12T11:20:08.051Z,1000.02
2019-03-12T11:25:06.335Z,999.97
2019-03-12T11:30:02.853Z,999.99
2019-03-12T11:35:07.923Z,999.94
2019-03-12T11:40:07.180Z,999.71
2019-03-12T11:45:16.712Z,999.61
2019-03-12T11:50:08.113Z,999.48
2019-03-12T11:55:06.385Z,999.35
2019-03-12T12:00:03.180Z,999.21
2019-03-12T12:05:07.711Z,999.06
2019-03-12T12:10:06.454Z,998.89
2019-03-12T12:15:03.596Z,998.7
2019-03-12T12:20:06.236Z,998.55
2019-03-12T12:25:07.445Z,998.43
2019-03-12T12:30:02.902Z,998.29
2019-03-12T12:35:05.853Z,998.19
2019-03-12T12:40:06.231Z,998.05
2019-03-12T12:45:02.728Z,997.94
2019-03-12T12:50:05.848Z,997.73
2019-03-12T12:55:07.705Z,997.49
2019-03-12T13:00:03.199Z,997.44
2019-03-12T13:05:07.541Z,997.25
2019-03-12T13:10:05.855Z,997.08
2019-03-12T13:15:03.327Z,996.97
2019-03-12T13:20:07.266Z,996.77
2019-03-12T13:25:07.117Z,996.52
2019-03-12T13:30:02.658Z,996.41
2019-03-12T13:35:06.220Z,996.25
2019-03-12T13:40:07.479Z,996.02
2019-03-12T13:45:03.591Z,995.8
2019-03-12T13:50:06.405Z,995.72
2019-03-12T13:55:07.409Z,995.52
2019-03-12T14:00:03.554Z,995.46
2019-03-12T14:05:06.851Z,995.34
2019-03-12T14:10:09.224Z,995.06
2019-03-12T14:15:03.346Z,994.91
2019-03-12T14:20:06.815Z,994.73
2019-03-12T14:25:10.057Z,994.57
2019-03-12T14:30:04.115Z,994.47
2019-03-12T14:35:08.912Z,994.35
2019-03-12T14:40:08.873Z,994.1
2019-03-12T14:45:03.949Z,993.95
2019-03-12T14:50:06.646Z,993.71
2019-03-12T14:55:07.240Z,993.58
2019-03-12T15:00:03.882Z,993.43
2019-03-12T15:05:07.019Z,993.19
2019-03-12T15:10:05.930Z,993.08
2019-03-12T15:15:03.980Z,993.01
2019-03-12T15:20:04.929Z,992.79
2019-03-12T15:25:06.289Z,992.59
2019-03-12T15:30:04.036Z,992.44
2019-03-12T15:35:06.245Z,992.3
2019-03-12T15:40:06.886Z,992.18
2019-03-12T15:45:04.443Z,992.03
2019-03-12T15:50:10.026Z,991.85
2019-03-12T15:55:09.674Z,991.8
2019-03-12T16:00:04.331Z,991.56
2019-03-12T16:05:10.238Z,991.29
2019-03-12T16:10:07.149Z,991.16
2019-03-12T16:15:03.831Z,990.9
2019-03-12T16:20:08.839Z,990.68
2019-03-12T16:25:09.391Z,990.7
2019-03-12T16:30:04.079Z,990.54
2019-03-12T16:35:07.221Z,990.66
2019-03-12T16:40:07.302Z,990.56
2019-03-12T16:45:03.945Z,990.35
2019-03-12T16:50:06.613Z,990.2
2019-03-12T16:55:09.119Z,989.9
2019-03-12T17:00:09.521Z,989.83
2019-03-12T17:05:06.910Z,989.71
2019-03-12T17:10:07.589Z,989.86
2019-03-12T17:15:04.097Z,989.78
2019-03-12T17:20:06.472Z,989.43
2019-03-12T17:25:09.225Z,989.03
2019-03-12T17:30:03.397Z,989.02
2019-03-12T17:35:06.756Z,988.98
2019-03-12T17:40:09.617Z,988.95
2019-03-12T17:45:04.273Z,988.7
2019-03-12T17:50:09.040Z,988.69
2019-03-12T17:55:07.141Z,988.3
2019-03-12T18:00:03.315Z,988.29
2019-03-12T18:05:08.286Z,988.01
2019-03-12T18:10:07.547Z,988.3
2019-03-12T18:15:03.630Z,988.02
2019-03-12T18:20:07.694Z,987.83
2019-03-12T18:25:08.555Z,987.83
2019-03-12T18:30:03.542Z,987.85
2019-03-12T18:35:07.679Z,987.64
2019-03-12T18:40:07.629Z,987.33
2019-03-12T18:45:03.694Z,987.11
2019-03-12T18:50:07.754Z,987.08
2019-03-12T18:55:06.416Z,986.96
2019-03-12T19:00:02.929Z,986.88
2019-03-12T19:05:08.058Z,986.39
2019-03-12T19:10:13.194Z,986.74
2019-03-12T19:15:03.393Z,986.8
2019-03-12T19:20:07.393Z,986.69
2019-03-12T19:25:06.550Z,986.68
2019-03-12T19:30:03.090Z,986.56
2019-03-12T19:35:07.111Z,986.4
2019-03-12T19:40:07.240Z,986.27
2019-03-12T19:45:02.793Z,986.22
2019-03-12T19:50:06.124Z,986.04
2019-03-12T19:55:05.729Z,986.01
2019-03-12T20:00:03.202Z,985.93
2019-03-12T20:05:05.874Z,985.92
2019-03-12T20:10:06.245Z,985.99
2019-03-12T20:15:02.825Z,985.95
2019-03-12T20:20:06.217Z,985.98
2019-03-12T20:25:05.206Z,985.84
2019-03-12T20:30:02.765Z,985.89
2019-03-12T20:35:08.454Z,985.94
2019-03-12T20:40:05.465Z,985.99
2019-03-12T20:45:02.920Z,986.14
2019-03-12T20:50:06.235Z,986.37
2019-03-12T20:55:10.492Z,986.49
2019-03-12T21:00:03.605Z,986.36
2019-03-12T21:05:06.673Z,986.53
2019-03-12T21:10:06.717Z,986.72
2019-03-12T21:15:04.309Z,986.7
2019-03-12T21:20:08.785Z,986.77
2019-03-12T21:25:06.367Z,986.83
2019-03-12T21:30:03.479Z,987.22
2019-03-12T21:35:05.567Z,987.79
2019-03-12T21:40:09.390Z,988.19
2019-03-12T21:45:04.025Z,988.46
2019-03-12T21:50:06.460Z,988.73
2019-03-12T21:55:09.267Z,988.85
2019-03-12T22:00:03.467Z,988.9
2019-03-12T22:05:09.003Z,988.97
2019-03-12T22:10:08.788Z,989.03
2019-03-12T22:15:06.709Z,988.97
2019-03-12T22:20:09.629Z,989
2019-03-12T22:25:08.020Z,989.11
2019-03-12T22:30:03.671Z,989.26
2019-03-12T22:35:09.441Z,989.33
2019-03-12T22:40:07.595Z,989.3
2019-03-12T22:45:04.369Z,989.46
2019-03-12T22:50:08.298Z,989.57
2019-03-12T22:55:07.961Z,989.66
2019-03-12T23:00:04.513Z,989.75
2019-03-12T23:05:08.596Z,989.83
2019-03-12T23:10:07.845Z,989.87
2019-03-12T23:15:04.379Z,989.94
2019-03-12T23:20:07.605Z,989.96
2019-03-12T23:25:08.549Z,990.06
2019-03-12T23:30:04.035Z,990.11
2019-03-12T23:35:07.318Z,990.24
2019-03-12T23:40:06.937Z,990.28
2019-03-12T23:45:04.563Z,990.42
2019-03-12T23:50:06.815Z,990.48
2019-03-12T23:55:07.737Z,990.61
